DAL1152 KPHX-KLAX
Flight info
| Callsign | DAL1152 |
|---|---|
| Flight time | 0h 47m |
| Altitude | 34000 |
| Route | KEENS3 WLVRN ESTWD HLYWD1 |
| Aircraft | A320/M-SDE3FGHIRWY/LB1 |
Departure
| Time | 2026-05-07 04:39 |
|---|---|
| Airport | Phoenix Sky Harbor International Airport (KPHX) |
Arrival
| Time | 2026-05-07 05:26 |
|---|---|
| Airport | Los Angeles International Airport (KLAX) |
| Time | Latitude | Longitude | Altitude | Speed | Heading |
|---|---|---|---|---|---|
| 2026-05-07 04:18 | 33.43396 | -112.00873 | 1122 ft | 0 kts | 358° |
| 2026-05-07 04:31 | 33.43375 | -112.00872 | 1115 ft | 4 kts | 0° |
| 2026-05-07 04:32 | 33.43347 | -112.00873 | 1115 ft | 4 kts | 5° |
| 2026-05-07 04:32 | 33.43321 | -112.00877 | 1118 ft | 4 kts | 13° |
| 2026-05-07 04:32 | 33.43297 | -112.00888 | 1114 ft | 4 kts | 41° |
| 2026-05-07 04:32 | 33.43287 | -112.00904 | 1116 ft | 0 kts | 90° |
| 2026-05-07 04:34 | 33.43287 | -112.00859 | 1122 ft | 6 kts | 90° |
| 2026-05-07 04:35 | 33.43287 | -112.00808 | 1123 ft | 9 kts | 90° |
| 2026-05-07 04:35 | 33.43287 | -112.00730 | 1122 ft | 9 kts | 90° |
| 2026-05-07 04:35 | 33.43288 | -112.00633 | 1125 ft | 14 kts | 90° |
| 2026-05-07 04:35 | 33.43288 | -112.00526 | 1125 ft | 12 kts | 90° |
| 2026-05-07 04:36 | 33.43283 | -112.00423 | 1120 ft | 12 kts | 102° |
| 2026-05-07 04:36 | 33.43229 | -112.00366 | 1119 ft | 9 kts | 143° |
| 2026-05-07 04:36 | 33.43216 | -112.00286 | 1119 ft | 17 kts | 93° |
| 2026-05-07 04:36 | 33.43214 | -112.00132 | 1127 ft | 18 kts | 89° |
| 2026-05-07 04:37 | 33.43215 | -111.99985 | 1119 ft | 17 kts | 90° |
| 2026-05-07 04:37 | 33.43215 | -111.99852 | 1119 ft | 15 kts | 90° |
| 2026-05-07 04:37 | 33.43214 | -111.99731 | 1125 ft | 13 kts | 90° |
| 2026-05-07 04:37 | 33.43214 | -111.99625 | 1127 ft | 12 kts | 89° |
| 2026-05-07 04:38 | 33.43206 | -111.99533 | 1127 ft | 10 kts | 117° |
| 2026-05-07 04:38 | 33.43161 | -111.99514 | 1131 ft | 4 kts | 195° |
| 2026-05-07 04:38 | 33.43123 | -111.99563 | 1134 ft | 15 kts | 240° |
| 2026-05-07 04:38 | 33.43103 | -111.99919 | 1131 ft | 86 kts | 270° |
| 2026-05-07 04:39 | 33.43101 | -112.00993 | 1130 ft | 164 kts | 270° |
| 2026-05-07 04:39 | 33.43135 | -112.02547 | 1457 ft | 202 kts | 272° |
| 2026-05-07 04:39 | 33.43198 | -112.04254 | 2214 ft | 202 kts | 270° |
| 2026-05-07 04:39 | 33.43128 | -112.05926 | 2802 ft | 212 kts | 266° |
| 2026-05-07 04:40 | 33.42932 | -112.07803 | 3217 ft | 237 kts | 254° |
| 2026-05-07 04:40 | 33.42257 | -112.09680 | 3714 ft | 258 kts | 247° |
| 2026-05-07 04:40 | 33.41546 | -112.11693 | 4521 ft | 266 kts | 249° |
| 2026-05-07 04:40 | 33.40865 | -112.13779 | 5398 ft | 271 kts | 251° |
| 2026-05-07 04:41 | 33.40194 | -112.15918 | 6282 ft | 277 kts | 252° |
| 2026-05-07 04:41 | 33.39538 | -112.18119 | 7078 ft | 284 kts | 256° |
| 2026-05-07 04:41 | 33.39262 | -112.20463 | 7875 ft | 289 kts | 272° |
| 2026-05-07 04:41 | 33.39507 | -112.22864 | 8680 ft | 294 kts | 283° |
| 2026-05-07 04:42 | 33.39755 | -112.24466 | 9214 ft | 298 kts | 282° |
| 2026-05-07 04:42 | 33.40135 | -112.26946 | 9986 ft | 306 kts | 282° |
| 2026-05-07 04:42 | 33.40522 | -112.29514 | 10448 ft | 325 kts | 282° |
| 2026-05-07 04:42 | 33.40930 | -112.32260 | 10828 ft | 344 kts | 282° |
| 2026-05-07 04:43 | 33.41352 | -112.35115 | 11516 ft | 351 kts | 282° |
| 2026-05-07 04:43 | 33.41779 | -112.38014 | 12321 ft | 354 kts | 282° |
| 2026-05-07 04:43 | 33.42209 | -112.40932 | 13108 ft | 358 kts | 282° |
| 2026-05-07 04:43 | 33.42645 | -112.43883 | 13857 ft | 362 kts | 282° |
| 2026-05-07 04:44 | 33.43088 | -112.46871 | 14520 ft | 367 kts | 281° |
| 2026-05-07 04:44 | 33.43534 | -112.49894 | 15189 ft | 371 kts | 281° |
| 2026-05-07 04:44 | 33.43988 | -112.52989 | 15554 ft | 386 kts | 281° |
| 2026-05-07 04:44 | 33.44456 | -112.56196 | 16032 ft | 394 kts | 281° |
| 2026-05-07 04:45 | 33.44912 | -112.59453 | 16653 ft | 399 kts | 278° |
| 2026-05-07 04:45 | 33.45058 | -112.62791 | 17293 ft | 403 kts | 272° |
| 2026-05-07 04:45 | 33.45098 | -112.66160 | 17963 ft | 407 kts | 272° |
| 2026-05-07 04:45 | 33.45142 | -112.69518 | 18564 ft | 410 kts | 272° |
| 2026-05-07 04:46 | 33.45186 | -112.72945 | 19113 ft | 414 kts | 272° |
| 2026-05-07 04:46 | 33.45236 | -112.76404 | 19656 ft | 417 kts | 274° |
| 2026-05-07 04:46 | 33.45575 | -112.79859 | 20177 ft | 419 kts | 284° |
| 2026-05-07 04:46 | 33.46398 | -112.83208 | 20680 ft | 421 kts | 294° |
| 2026-05-07 04:47 | 33.47540 | -112.86454 | 21200 ft | 424 kts | 296° |
| 2026-05-07 04:47 | 33.48696 | -112.89720 | 21718 ft | 427 kts | 296° |
| 2026-05-07 04:47 | 33.49854 | -112.93017 | 22220 ft | 431 kts | 296° |
| 2026-05-07 04:47 | 33.51015 | -112.96338 | 22708 ft | 434 kts | 296° |
| 2026-05-07 04:48 | 33.52184 | -112.99691 | 23186 ft | 438 kts | 296° |
| 2026-05-07 04:48 | 33.53361 | -113.03074 | 23626 ft | 441 kts | 296° |
| 2026-05-07 04:48 | 33.54541 | -113.06466 | 24058 ft | 442 kts | 296° |
| 2026-05-07 04:48 | 33.55730 | -113.09882 | 24463 ft | 445 kts | 296° |
| 2026-05-07 04:49 | 33.56927 | -113.13317 | 24824 ft | 448 kts | 297° |
| 2026-05-07 04:49 | 33.58116 | -113.16735 | 25172 ft | 451 kts | 297° |
| 2026-05-07 04:49 | 33.59328 | -113.20219 | 25525 ft | 454 kts | 297° |
| 2026-05-07 04:49 | 33.60545 | -113.23725 | 25871 ft | 457 kts | 297° |
| 2026-05-07 04:50 | 33.61772 | -113.27261 | 26208 ft | 460 kts | 297° |
| 2026-05-07 04:50 | 33.63006 | -113.30821 | 26544 ft | 463 kts | 297° |
| 2026-05-07 04:50 | 33.64244 | -113.34396 | 26870 ft | 466 kts | 297° |
| 2026-05-07 04:50 | 33.65490 | -113.38000 | 27197 ft | 469 kts | 297° |
| 2026-05-07 04:51 | 33.66741 | -113.41630 | 27512 ft | 472 kts | 297° |
| 2026-05-07 04:51 | 33.67998 | -113.45285 | 27841 ft | 475 kts | 297° |
| 2026-05-07 04:51 | 33.69259 | -113.48958 | 28131 ft | 477 kts | 297° |
| 2026-05-07 04:51 | 33.70528 | -113.52659 | 28428 ft | 480 kts | 297° |
| 2026-05-07 04:52 | 33.71798 | -113.56365 | 28712 ft | 482 kts | 297° |
| 2026-05-07 04:52 | 33.73083 | -113.60106 | 28989 ft | 485 kts | 297° |
| 2026-05-07 04:52 | 33.74352 | -113.63803 | 29253 ft | 487 kts | 297° |
| 2026-05-07 04:52 | 33.75648 | -113.67582 | 29482 ft | 489 kts | 297° |
| 2026-05-07 04:53 | 33.76946 | -113.71371 | 29736 ft | 491 kts | 297° |
| 2026-05-07 04:53 | 33.78245 | -113.75176 | 29931 ft | 493 kts | 297° |
| 2026-05-07 04:53 | 33.79543 | -113.78991 | 30240 ft | 492 kts | 297° |
| 2026-05-07 04:53 | 33.80839 | -113.82802 | 30547 ft | 491 kts | 297° |
| 2026-05-07 04:54 | 33.82128 | -113.86595 | 30855 ft | 489 kts | 297° |
| 2026-05-07 04:54 | 33.83410 | -113.90377 | 31148 ft | 488 kts | 297° |
| 2026-05-07 04:54 | 33.84687 | -113.94147 | 31477 ft | 485 kts | 297° |
| 2026-05-07 04:54 | 33.85960 | -113.97899 | 31811 ft | 483 kts | 297° |
| 2026-05-07 04:55 | 33.87229 | -114.01639 | 32126 ft | 482 kts | 297° |
| 2026-05-07 04:55 | 33.88493 | -114.05365 | 32438 ft | 481 kts | 297° |
| 2026-05-07 04:55 | 33.89754 | -114.09093 | 32740 ft | 480 kts | 296° |
| 2026-05-07 04:55 | 33.90786 | -114.12941 | 33047 ft | 485 kts | 288° |
| 2026-05-07 04:56 | 33.91478 | -114.16919 | 33349 ft | 486 kts | 286° |
| 2026-05-07 04:56 | 33.92143 | -114.20853 | 33652 ft | 485 kts | 286° |
| 2026-05-07 04:56 | 33.92812 | -114.24828 | 33914 ft | 485 kts | 286° |
| 2026-05-07 04:56 | 33.93486 | -114.28821 | 33939 ft | 489 kts | 286° |
| 2026-05-07 04:57 | 33.94846 | -114.36871 | 33927 ft | 491 kts | 286° |
| 2026-05-07 04:57 | 33.96209 | -114.44937 | 33930 ft | 492 kts | 286° |
| 2026-05-07 04:58 | 33.97563 | -114.53009 | 33935 ft | 490 kts | 286° |
| 2026-05-07 04:58 | 33.98904 | -114.61060 | 33934 ft | 490 kts | 286° |
| 2026-05-07 04:59 | 34.00238 | -114.69108 | 33936 ft | 490 kts | 286° |
| 2026-05-07 04:59 | 34.01573 | -114.77173 | 33949 ft | 490 kts | 286° |
| 2026-05-07 05:00 | 34.02892 | -114.85183 | 33944 ft | 490 kts | 286° |
| 2026-05-07 05:00 | 34.04215 | -114.93241 | 33942 ft | 490 kts | 286° |
| 2026-05-07 05:01 | 34.05537 | -115.01355 | 33942 ft | 490 kts | 286° |
| 2026-05-07 05:01 | 34.06855 | -115.09426 | 33928 ft | 490 kts | 286° |
| 2026-05-07 05:02 | 34.08173 | -115.17493 | 33948 ft | 490 kts | 286° |
| 2026-05-07 05:02 | 34.09466 | -115.25507 | 33953 ft | 489 kts | 285° |
| 2026-05-07 05:03 | 34.10755 | -115.33576 | 33963 ft | 489 kts | 285° |
| 2026-05-07 05:03 | 34.12048 | -115.41654 | 33964 ft | 490 kts | 285° |
| 2026-05-07 05:04 | 34.13339 | -115.49729 | 33961 ft | 490 kts | 285° |
| 2026-05-07 05:04 | 34.14626 | -115.57814 | 33970 ft | 490 kts | 285° |
| 2026-05-07 05:05 | 34.15891 | -115.65913 | 33957 ft | 492 kts | 282° |
| 2026-05-07 05:05 | 34.15887 | -115.74226 | 33967 ft | 501 kts | 266° |
| 2026-05-07 05:06 | 34.15070 | -115.82571 | 34008 ft | 501 kts | 266° |
| 2026-05-07 05:06 | 34.14266 | -115.90918 | 34041 ft | 501 kts | 267° |
| 2026-05-07 05:07 | 34.13461 | -115.99213 | 34062 ft | 499 kts | 266° |
| 2026-05-07 05:07 | 34.12643 | -116.07527 | 34100 ft | 498 kts | 266° |
| 2026-05-07 05:08 | 34.11821 | -116.15820 | 34110 ft | 497 kts | 266° |
| 2026-05-07 05:08 | 34.10995 | -116.24101 | 34100 ft | 496 kts | 266° |
| 2026-05-07 05:09 | 34.10169 | -116.32348 | 34025 ft | 495 kts | 266° |
| 2026-05-07 05:09 | 34.09303 | -116.40573 | 34032 ft | 494 kts | 266° |
| 2026-05-07 05:10 | 34.08416 | -116.48737 | 34038 ft | 493 kts | 266° |
| 2026-05-07 05:10 | 34.07518 | -116.56928 | 34028 ft | 493 kts | 266° |
| 2026-05-07 05:11 | 34.06674 | -116.65123 | 34042 ft | 491 kts | 267° |
| 2026-05-07 05:11 | 34.05936 | -116.73318 | 34037 ft | 491 kts | 268° |
| 2026-05-07 05:12 | 34.05213 | -116.81491 | 34050 ft | 490 kts | 267° |
| 2026-05-07 05:12 | 34.04441 | -116.89679 | 34040 ft | 491 kts | 267° |
| 2026-05-07 05:13 | 34.03460 | -116.97827 | 34049 ft | 491 kts | 264° |
| 2026-05-07 05:13 | 34.02339 | -117.05911 | 33495 ft | 494 kts | 264° |
| 2026-05-07 05:14 | 34.01801 | -117.10032 | 32168 ft | 499 kts | 265° |
| 2026-05-07 05:14 | 34.01304 | -117.14139 | 31593 ft | 489 kts | 265° |
| 2026-05-07 05:14 | 34.00835 | -117.18150 | 31110 ft | 479 kts | 265° |
| 2026-05-07 05:14 | 34.00380 | -117.22119 | 30636 ft | 473 kts | 266° |
| 2026-05-07 05:15 | 33.99933 | -117.26021 | 30027 ft | 468 kts | 265° |
| 2026-05-07 05:15 | 33.99482 | -117.29882 | 29537 ft | 459 kts | 265° |
| 2026-05-07 05:15 | 33.99033 | -117.33636 | 28775 ft | 447 kts | 265° |
| 2026-05-07 05:15 | 33.98596 | -117.37307 | 27913 ft | 439 kts | 265° |
| 2026-05-07 05:16 | 33.98166 | -117.40924 | 27048 ft | 433 kts | 265° |
| 2026-05-07 05:16 | 33.97749 | -117.44449 | 26175 ft | 427 kts | 265° |
| 2026-05-07 05:16 | 33.97466 | -117.47974 | 25273 ft | 417 kts | 275° |
| 2026-05-07 05:16 | 33.97841 | -117.51370 | 24471 ft | 403 kts | 289° |
| 2026-05-07 05:17 | 33.98597 | -117.54592 | 23594 ft | 398 kts | 290° |
| 2026-05-07 05:17 | 33.99351 | -117.57776 | 22628 ft | 393 kts | 289° |
| 2026-05-07 05:17 | 34.00097 | -117.60929 | 21722 ft | 389 kts | 289° |
| 2026-05-07 05:17 | 34.00829 | -117.64043 | 20854 ft | 384 kts | 289° |
| 2026-05-07 05:18 | 34.01551 | -117.67117 | 20004 ft | 379 kts | 289° |
| 2026-05-07 05:18 | 34.02030 | -117.70239 | 19180 ft | 378 kts | 276° |
| 2026-05-07 05:18 | 34.01885 | -117.73425 | 18091 ft | 384 kts | 266° |
| 2026-05-07 05:18 | 34.01577 | -117.76641 | 16926 ft | 387 kts | 265° |
| 2026-05-07 05:19 | 34.01257 | -117.79867 | 15909 ft | 387 kts | 265° |
| 2026-05-07 05:19 | 34.00935 | -117.83053 | 14898 ft | 384 kts | 265° |
| 2026-05-07 05:19 | 34.00613 | -117.86238 | 13951 ft | 382 kts | 265° |
| 2026-05-07 05:19 | 34.00297 | -117.89405 | 12899 ft | 378 kts | 265° |
| 2026-05-07 05:20 | 33.99988 | -117.92533 | 11864 ft | 374 kts | 265° |
| 2026-05-07 05:20 | 33.99684 | -117.95622 | 10907 ft | 369 kts | 265° |
| 2026-05-07 05:20 | 33.99385 | -117.98671 | 9987 ft | 363 kts | 265° |
| 2026-05-07 05:20 | 33.99096 | -118.01596 | 9540 ft | 344 kts | 265° |
| 2026-05-07 05:21 | 33.98815 | -118.04374 | 9387 ft | 316 kts | 265° |
| 2026-05-07 05:21 | 33.98310 | -118.09399 | 8354 ft | 296 kts | 265° |
| 2026-05-07 05:21 | 33.98068 | -118.11839 | 7760 ft | 290 kts | 265° |
| 2026-05-07 05:22 | 33.97831 | -118.14235 | 7187 ft | 285 kts | 265° |
| 2026-05-07 05:22 | 33.97596 | -118.16580 | 6650 ft | 277 kts | 265° |
| 2026-05-07 05:22 | 33.97373 | -118.18792 | 6474 ft | 257 kts | 265° |
| 2026-05-07 05:22 | 33.97164 | -118.20880 | 6045 ft | 243 kts | 265° |
| 2026-05-07 05:23 | 33.96969 | -118.22820 | 5613 ft | 226 kts | 265° |
| 2026-05-07 05:23 | 33.96784 | -118.24659 | 5188 ft | 212 kts | 264° |
| 2026-05-07 05:23 | 33.96611 | -118.26374 | 4747 ft | 203 kts | 264° |
| 2026-05-07 05:23 | 33.96445 | -118.28023 | 4330 ft | 192 kts | 264° |
| 2026-05-07 05:24 | 33.96286 | -118.29592 | 3908 ft | 185 kts | 263° |
| 2026-05-07 05:24 | 33.96141 | -118.31071 | 3579 ft | 174 kts | 264° |
| 2026-05-07 05:24 | 33.96029 | -118.32464 | 3245 ft | 162 kts | 265° |
| 2026-05-07 05:24 | 33.95923 | -118.33848 | 2607 ft | 170 kts | 263° |
| 2026-05-07 05:25 | 33.95744 | -118.35276 | 1963 ft | 176 kts | 262° |
| 2026-05-07 05:25 | 33.95585 | -118.36756 | 1274 ft | 180 kts | 261° |
| 2026-05-07 05:25 | 33.95404 | -118.38210 | 764 ft | 170 kts | 262° |
| 2026-05-07 05:25 | 33.95265 | -118.39586 | 334 ft | 161 kts | 263° |
| 2026-05-07 05:26 | 33.95131 | -118.40877 | 142 ft | 151 kts | 261° |
| 2026-05-07 05:26 | 33.95032 | -118.41920 | 123 ft | 84 kts | 263° |
| 2026-05-07 05:26 | 33.94985 | -118.42358 | 125 ft | 27 kts | 262° |
| 2026-05-07 05:26 | 33.94924 | -118.42560 | 126 ft | 22 kts | 238° |
| 2026-05-07 05:27 | 33.94854 | -118.42675 | 124 ft | 8 kts | 227° |
| 2026-05-07 05:27 | 33.94852 | -118.42678 | 125 ft | 0 kts | 227° |
| 2026-05-07 05:27 | 33.94851 | -118.42679 | 124 ft | 4 kts | 227° |
| 2026-05-07 05:28 | 33.94792 | -118.42740 | 124 ft | 13 kts | 208° |
| 2026-05-07 05:28 | 33.94698 | -118.42782 | 123 ft | 16 kts | 186° |
| 2026-05-07 05:28 | 33.94635 | -118.42702 | 124 ft | 16 kts | 83° |
| 2026-05-07 05:28 | 33.94648 | -118.42578 | 124 ft | 14 kts | 83° |
| 2026-05-07 05:29 | 33.94659 | -118.42465 | 123 ft | 13 kts | 83° |
| 2026-05-07 05:29 | 33.94670 | -118.42361 | 126 ft | 12 kts | 83° |
| 2026-05-07 05:29 | 33.94680 | -118.42264 | 126 ft | 14 kts | 82° |
| 2026-05-07 05:29 | 33.94697 | -118.42104 | 126 ft | 21 kts | 83° |
| 2026-05-07 05:30 | 33.94717 | -118.41919 | 125 ft | 23 kts | 83° |
| 2026-05-07 05:30 | 33.94736 | -118.41716 | 126 ft | 26 kts | 82° |
| 2026-05-07 05:30 | 33.94760 | -118.41495 | 126 ft | 28 kts | 81° |
| 2026-05-07 05:30 | 33.94797 | -118.41258 | 126 ft | 30 kts | 83° |
| 2026-05-07 05:31 | 33.94825 | -118.41003 | 126 ft | 32 kts | 83° |
| 2026-05-07 05:31 | 33.94850 | -118.40733 | 123 ft | 33 kts | 84° |
| 2026-05-07 05:31 | 33.94879 | -118.40489 | 122 ft | 26 kts | 81° |
| 2026-05-07 05:31 | 33.94887 | -118.40409 | 126 ft | 0 kts | 85° |
| 2026-05-07 05:32 | 33.94888 | -118.40389 | 124 ft | 9 kts | 86° |
| 2026-05-07 05:32 | 33.94891 | -118.40352 | 123 ft | 0 kts | 86° |
| 2026-05-07 05:32 | 33.94883 | -118.40314 | 122 ft | 6 kts | 129° |
| 2026-05-07 05:33 | 33.94846 | -118.40305 | 124 ft | 5 kts | 195° |
| 2026-05-07 05:33 | 33.94817 | -118.40314 | 124 ft | 4 kts | 195° |
| 2026-05-07 05:33 | 33.94780 | -118.40297 | 125 ft | 8 kts | 144° |
| 2026-05-07 05:33 | 33.94737 | -118.40259 | 123 ft | 7 kts | 149° |
| 2026-05-07 05:34 | 33.94694 | -118.40251 | 123 ft | 5 kts | 187° |
| 2026-05-07 05:34 | 33.94677 | -118.40293 | 124 ft | 5 kts | 263° |
| 2026-05-07 05:34 | 33.94673 | -118.40330 | 124 ft | 2 kts | 263° |
| 2026-05-07 05:34 | 33.94673 | -118.40336 | 122 ft | 0 kts | 263° |